sensor_id;sensor_type;location;lat;lon;timestamp;temperature;humidity
17687;DHT22;8962;52.538;13.266;2023-05-21T00:01:37;14.80;99.90
17687;DHT22;8962;52.538;13.266;2023-05-21T00:04:05;14.80;99.90
17687;DHT22;8962;52.538;13.266;2023-05-21T00:06:34;14.80;99.90
17687;DHT22;8962;52.538;13.266;2023-05-21T00:09:02;14.80;99.90
17687;DHT22;8962;52.538;13.266;2023-05-21T00:11:29;14.70;99.90
17687;DHT22;8962;52.538;13.266;2023-05-21T00:13:57;14.70;99.90
17687;DHT22;8962;52.538;13.266;2023-05-21T00:16:24;14.70;99.90
17687;DHT22;8962;52.538;13.266;2023-05-21T00:18:52;14.80;99.90
17687;DHT22;8962;52.538;13.266;2023-05-21T00:21:20;14.80;99.90
17687;DHT22;8962;52.538;13.266;2023-05-21T00:23:49;14.70;99.90
17687;DHT22;8962;52.538;13.266;2023-05-21T00:26:16;14.70;99.90
17687;DHT22;8962;52.538;13.266;2023-05-21T00:28:44;14.70;99.90
17687;DHT22;8962;52.538;13.266;2023-05-21T00:31:11;14.70;99.90
17687;DHT22;8962;52.538;13.266;2023-05-21T00:33:38;14.60;99.90
17687;DHT22;8962;52.538;13.266;2023-05-21T00:36:05;14.60;99.90
17687;DHT22;8962;52.538;13.266;2023-05-21T00:38:33;14.60;99.90
17687;DHT22;8962;52.538;13.266;2023-05-21T00:41:06;14.60;99.90
17687;DHT22;8962;52.538;13.266;2023-05-21T00:43:33;14.60;99.90
17687;DHT22;8962;52.538;13.266;2023-05-21T00:46:00;14.60;99.90
17687;DHT22;8962;52.538;13.266;2023-05-21T00:48:28;14.60;99.90
17687;DHT22;8962;52.538;13.266;2023-05-21T00:50:57;14.60;99.90
17687;DHT22;8962;52.538;13.266;2023-05-21T00:53:24;14.60;99.90
17687;DHT22;8962;52.538;13.266;2023-05-21T00:55:52;14.60;99.90
17687;DHT22;8962;52.538;13.266;2023-05-21T00:58:21;14.60;99.90
17687;DHT22;8962;52.538;13.266;2023-05-21T01:00:49;14.60;99.90
17687;DHT22;8962;52.538;13.266;2023-05-21T01:03:17;14.60;99.90
17687;DHT22;8962;52.538;13.266;2023-05-21T01:05:45;14.60;99.90
17687;DHT22;8962;52.538;13.266;2023-05-21T01:08:13;14.50;99.90
17687;DHT22;8962;52.538;13.266;2023-05-21T01:10:41;14.50;99.90
17687;DHT22;8962;52.538;13.266;2023-05-21T01:13:09;14.50;99.90
17687;DHT22;8962;52.538;13.266;2023-05-21T01:15:37;14.50;99.90
17687;DHT22;8962;52.538;13.266;2023-05-21T01:18:05;14.40;99.90
17687;DHT22;8962;52.538;13.266;2023-05-21T01:20:32;14.40;99.90
17687;DHT22;8962;52.538;13.266;2023-05-21T01:23:02;14.40;99.90
17687;DHT22;8962;52.538;13.266;2023-05-21T01:25:29;14.30;99.90
17687;DHT22;8962;52.538;13.266;2023-05-21T01:27:56;14.30;99.90
17687;DHT22;8962;52.538;13.266;2023-05-21T01:30:26;14.30;99.90
17687;DHT22;8962;52.538;13.266;2023-05-21T01:32:57;14.30;99.90
17687;DHT22;8962;52.538;13.266;2023-05-21T01:35:30;14.30;99.90
17687;DHT22;8962;52.538;13.266;2023-05-21T01:38:05;14.20;99.90
17687;DHT22;8962;52.538;13.266;2023-05-21T01:40:38;14.20;99.90
17687;DHT22;8962;52.538;13.266;2023-05-21T01:43:07;14.20;99.90
17687;DHT22;8962;52.538;13.266;2023-05-21T01:45:36;14.10;99.90
17687;DHT22;8962;52.538;13.266;2023-05-21T01:48:06;14.10;99.90
17687;DHT22;8962;52.538;13.266;2023-05-21T01:50:34;14.10;99.90
17687;DHT22;8962;52.538;13.266;2023-05-21T01:53:05;14.10;99.90
17687;DHT22;8962;52.538;13.266;2023-05-21T01:55:32;14.10;99.90
17687;DHT22;8962;52.538;13.266;2023-05-21T01:58:04;14.00;99.90
17687;DHT22;8962;52.538;13.266;2023-05-21T02:00:33;14.00;99.90
17687;DHT22;8962;52.538;13.266;2023-05-21T02:03:00;14.00;99.90
17687;DHT22;8962;52.538;13.266;2023-05-21T02:05:28;14.00;99.90
17687;DHT22;8962;52.538;13.266;2023-05-21T02:07:55;14.00;99.90
17687;DHT22;8962;52.538;13.266;2023-05-21T02:10:28;13.90;99.90
17687;DHT22;8962;52.538;13.266;2023-05-21T02:12:55;14.00;99.90
17687;DHT22;8962;52.538;13.266;2023-05-21T02:15:22;13.90;99.90
17687;DHT22;8962;52.538;13.266;2023-05-21T02:17:49;13.90;99.90
17687;DHT22;8962;52.538;13.266;2023-05-21T02:20:18;13.90;99.90
17687;DHT22;8962;52.538;13.266;2023-05-21T02:22:47;13.90;99.90
17687;DHT22;8962;52.538;13.266;2023-05-21T02:25:16;13.90;99.90
17687;DHT22;8962;52.538;13.266;2023-05-21T02:27:46;13.80;99.90
17687;DHT22;8962;52.538;13.266;2023-05-21T02:30:14;13.90;99.90
17687;DHT22;8962;52.538;13.266;2023-05-21T02:32:42;13.80;99.90
17687;DHT22;8962;52.538;13.266;2023-05-21T02:35:11;13.80;99.90
17687;DHT22;8962;52.538;13.266;2023-05-21T02:37:39;13.80;99.90
17687;DHT22;8962;52.538;13.266;2023-05-21T02:40:07;13.80;99.90
17687;DHT22;8962;52.538;13.266;2023-05-21T02:42:36;13.80;99.90
17687;DHT22;8962;52.538;13.266;2023-05-21T02:45:08;13.80;99.90
17687;DHT22;8962;52.538;13.266;2023-05-21T02:47:36;13.80;99.90
17687;DHT22;8962;52.538;13.266;2023-05-21T02:50:07;13.80;99.90
17687;DHT22;8962;52.538;13.266;2023-05-21T02:52:41;13.80;99.90
17687;DHT22;8962;52.538;13.266;2023-05-21T02:55:10;13.80;99.90
17687;DHT22;8962;52.538;13.266;2023-05-21T02:57:38;13.70;99.90
17687;DHT22;8962;52.538;13.266;2023-05-21T03:00:09;13.70;99.90
17687;DHT22;8962;52.538;13.266;2023-05-21T03:02:38;13.70;99.90
17687;DHT22;8962;52.538;13.266;2023-05-21T03:05:06;13.70;99.90
17687;DHT22;8962;52.538;13.266;2023-05-21T03:07:34;13.70;99.90
17687;DHT22;8962;52.538;13.266;2023-05-21T03:10:02;13.70;99.90
17687;DHT22;8962;52.538;13.266;2023-05-21T03:12:29;13.70;99.90
17687;DHT22;8962;52.538;13.266;2023-05-21T03:14:58;13.70;99.90
17687;DHT22;8962;52.538;13.266;2023-05-21T03:17:28;13.70;99.90
17687;DHT22;8962;52.538;13.266;2023-05-21T03:19:55;13.70;99.90
17687;DHT22;8962;52.538;13.266;2023-05-21T03:22:22;13.70;99.90
17687;DHT22;8962;52.538;13.266;2023-05-21T03:24:50;13.60;99.90
17687;DHT22;8962;52.538;13.266;2023-05-21T03:27:18;13.70;99.90
17687;DHT22;8962;52.538;13.266;2023-05-21T03:29:47;13.70;99.90
17687;DHT22;8962;52.538;13.266;2023-05-21T03:32:15;13.70;99.90
17687;DHT22;8962;52.538;13.266;2023-05-21T03:34:47;13.70;99.90
17687;DHT22;8962;52.538;13.266;2023-05-21T03:37:16;13.70;99.90
17687;DHT22;8962;52.538;13.266;2023-05-21T03:39:43;13.80;99.90
17687;DHT22;8962;52.538;13.266;2023-05-21T03:42:10;13.80;99.90
17687;DHT22;8962;52.538;13.266;2023-05-21T03:44:47;13.80;99.90
17687;DHT22;8962;52.538;13.266;2023-05-21T03:47:34;13.80;99.90
17687;DHT22;8962;52.538;13.266;2023-05-21T03:50:08;13.90;99.90
17687;DHT22;8962;52.538;13.266;2023-05-21T03:52:36;13.90;99.90
17687;DHT22;8962;52.538;13.266;2023-05-21T03:55:04;14.00;99.90
17687;DHT22;8962;52.538;13.266;2023-05-21T03:57:31;14.00;99.90
17687;DHT22;8962;52.538;13.266;2023-05-21T03:59:58;14.00;99.90
17687;DHT22;8962;52.538;13.266;2023-05-21T04:02:26;14.10;99.90
17687;DHT22;8962;52.538;13.266;2023-05-21T04:04:53;14.10;99.90
17687;DHT22;8962;52.538;13.266;2023-05-21T04:07:23;14.10;99.90
17687;DHT22;8962;52.538;13.266;2023-05-21T04:09:51;14.20;99.90
17687;DHT22;8962;52.538;13.266;2023-05-21T04:12:19;14.20;99.90
17687;DHT22;8962;52.538;13.266;2023-05-21T04:14:47;14.30;99.90
17687;DHT22;8962;52.538;13.266;2023-05-21T04:17:14;14.40;99.90
17687;DHT22;8962;52.538;13.266;2023-05-21T04:19:43;14.40;99.90
17687;DHT22;8962;52.538;13.266;2023-05-21T04:22:10;14.50;99.90
17687;DHT22;8962;52.538;13.266;2023-05-21T04:24:40;14.60;99.90
17687;DHT22;8962;52.538;13.266;2023-05-21T04:27:15;14.60;99.90
17687;DHT22;8962;52.538;13.266;2023-05-21T04:29:44;14.70;99.90
17687;DHT22;8962;52.538;13.266;2023-05-21T04:32:13;14.80;99.90
17687;DHT22;8962;52.538;13.266;2023-05-21T04:34:42;14.90;99.90
17687;DHT22;8962;52.538;13.266;2023-05-21T04:37:10;15.00;99.90
17687;DHT22;8962;52.538;13.266;2023-05-21T04:39:39;15.10;99.90
17687;DHT22;8962;52.538;13.266;2023-05-21T04:42:08;15.20;99.90
17687;DHT22;8962;52.538;13.266;2023-05-21T04:44:36;15.30;99.90
17687;DHT22;8962;52.538;13.266;2023-05-21T04:47:05;15.40;99.90
17687;DHT22;8962;52.538;13.266;2023-05-21T04:49:32;15.50;99.90
17687;DHT22;8962;52.538;13.266;2023-05-21T04:52:00;15.70;99.90
17687;DHT22;8962;52.538;13.266;2023-05-21T04:54:27;15.80;99.90
17687;DHT22;8962;52.538;13.266;2023-05-21T04:56:56;15.90;99.90
17687;DHT22;8962;52.538;13.266;2023-05-21T04:59:23;16.00;99.90
17687;DHT22;8962;52.538;13.266;2023-05-21T05:01:51;16.10;99.90
17687;DHT22;8962;52.538;13.266;2023-05-21T05:04:21;16.20;99.90
17687;DHT22;8962;52.538;13.266;2023-05-21T05:06:48;16.40;99.90
17687;DHT22;8962;52.538;13.266;2023-05-21T05:09:16;16.60;99.90
17687;DHT22;8962;52.538;13.266;2023-05-21T05:11:44;16.60;99.90
17687;DHT22;8962;52.538;13.266;2023-05-21T05:14:13;16.70;99.90
17687;DHT22;8962;52.538;13.266;2023-05-21T05:16:41;16.90;99.90
17687;DHT22;8962;52.538;13.266;2023-05-21T05:19:09;17.00;99.90
17687;DHT22;8962;52.538;13.266;2023-05-21T05:21:37;17.10;99.90
17687;DHT22;8962;52.538;13.266;2023-05-21T05:24:05;17.20;99.90
17687;DHT22;8962;52.538;13.266;2023-05-21T05:26:32;17.40;99.90
17687;DHT22;8962;52.538;13.266;2023-05-21T05:29:00;17.50;99.90
17687;DHT22;8962;52.538;13.266;2023-05-21T05:31:29;17.70;99.90
17687;DHT22;8962;52.538;13.266;2023-05-21T05:33:56;17.70;99.90
17687;DHT22;8962;52.538;13.266;2023-05-21T05:36:24;17.80;99.90
17687;DHT22;8962;52.538;13.266;2023-05-21T05:38:51;18.00;99.90
17687;DHT22;8962;52.538;13.266;2023-05-21T05:41:21;18.00;99.90
17687;DHT22;8962;52.538;13.266;2023-05-21T05:43:49;18.10;99.90
17687;DHT22;8962;52.538;13.266;2023-05-21T05:46:19;18.20;99.90
17687;DHT22;8962;52.538;13.266;2023-05-21T05:48:47;18.30;99.90
17687;DHT22;8962;52.538;13.266;2023-05-21T05:51:15;18.50;99.90
17687;DHT22;8962;52.538;13.266;2023-05-21T05:53:42;18.60;99.90
17687;DHT22;8962;52.538;13.266;2023-05-21T05:56:10;18.70;99.90
17687;DHT22;8962;52.538;13.266;2023-05-21T05:58:37;18.80;99.90
17687;DHT22;8962;52.538;13.266;2023-05-21T06:01:08;18.90;99.90
17687;DHT22;8962;52.538;13.266;2023-05-21T06:03:36;19.00;99.90
17687;DHT22;8962;52.538;13.266;2023-05-21T06:06:19;19.00;99.90
17687;DHT22;8962;52.538;13.266;2023-05-21T06:08:46;19.10;99.90
17687;DHT22;8962;52.538;13.266;2023-05-21T06:11:14;19.20;99.90
17687;DHT22;8962;52.538;13.266;2023-05-21T06:13:43;19.10;99.90
17687;DHT22;8962;52.538;13.266;2023-05-21T06:16:11;19.30;99.90
17687;DHT22;8962;52.538;13.266;2023-05-21T06:18:38;19.40;99.90
17687;DHT22;8962;52.538;13.266;2023-05-21T06:21:05;19.50;99.90
17687;DHT22;8962;52.538;13.266;2023-05-21T06:23:37;19.50;99.90
17687;DHT22;8962;52.538;13.266;2023-05-21T06:26:04;19.50;99.90
17687;DHT22;8962;52.538;13.266;2023-05-21T06:28:32;19.50;99.90
17687;DHT22;8962;52.538;13.266;2023-05-21T06:31:01;19.30;99.90
17687;DHT22;8962;52.538;13.266;2023-05-21T06:33:30;19.40;99.90
17687;DHT22;8962;52.538;13.266;2023-05-21T06:35:58;19.40;99.90
17687;DHT22;8962;52.538;13.266;2023-05-21T06:38:26;19.50;99.90
17687;DHT22;8962;52.538;13.266;2023-05-21T06:40:55;19.60;99.90
17687;DHT22;8962;52.538;13.266;2023-05-21T06:43:40;19.70;99.90
17687;DHT22;8962;52.538;13.266;2023-05-21T06:46:28;19.70;99.90
17687;DHT22;8962;52.538;13.266;2023-05-21T06:48:56;19.60;99.90
17687;DHT22;8962;52.538;13.266;2023-05-21T06:51:26;19.60;99.90
17687;DHT22;8962;52.538;13.266;2023-05-21T06:53:54;19.60;99.90
17687;DHT22;8962;52.538;13.266;2023-05-21T06:56:22;19.80;99.90
17687;DHT22;8962;52.538;13.266;2023-05-21T06:58:53;19.80;99.90
17687;DHT22;8962;52.538;13.266;2023-05-21T07:01:21;19.70;99.90
17687;DHT22;8962;52.538;13.266;2023-05-21T07:03:49;19.80;99.90
17687;DHT22;8962;52.538;13.266;2023-05-21T07:06:17;19.80;99.90
17687;DHT22;8962;52.538;13.266;2023-05-21T07:08:45;19.90;99.90
17687;DHT22;8962;52.538;13.266;2023-05-21T07:11:14;20.00;99.90
17687;DHT22;8962;52.538;13.266;2023-05-21T07:13:43;20.20;99.90
17687;DHT22;8962;52.538;13.266;2023-05-21T07:16:11;20.30;99.90
17687;DHT22;8962;52.538;13.266;2023-05-21T07:18:39;20.70;99.90
17687;DHT22;8962;52.538;13.266;2023-05-21T07:21:06;21.00;99.90
17687;DHT22;8962;52.538;13.266;2023-05-21T07:23:34;21.30;99.90
17687;DHT22;8962;52.538;13.266;2023-05-21T07:26:02;21.50;99.90
17687;DHT22;8962;52.538;13.266;2023-05-21T07:28:29;21.50;99.90
17687;DHT22;8962;52.538;13.266;2023-05-21T07:31:01;21.80;99.90
17687;DHT22;8962;52.538;13.266;2023-05-21T07:33:34;21.90;99.90
17687;DHT22;8962;52.538;13.266;2023-05-21T07:36:02;22.10;99.90
17687;DHT22;8962;52.538;13.266;2023-05-21T07:38:29;22.40;99.90
17687;DHT22;8962;52.538;13.266;2023-05-21T07:40:57;22.60;99.90
17687;DHT22;8962;52.538;13.266;2023-05-21T07:43:24;22.70;99.90
17687;DHT22;8962;52.538;13.266;2023-05-21T07:45:51;22.90;99.90
17687;DHT22;8962;52.538;13.266;2023-05-21T07:48:22;23.10;99.90
17687;DHT22;8962;52.538;13.266;2023-05-21T07:50:54;23.30;99.90
17687;DHT22;8962;52.538;13.266;2023-05-21T07:53:23;23.30;99.90
17687;DHT22;8962;52.538;13.266;2023-05-21T07:55:51;23.10;99.90
17687;DHT22;8962;52.538;13.266;2023-05-21T07:58:23;23.20;99.90
17687;DHT22;8962;52.538;13.266;2023-05-21T08:00:52;23.20;99.90
17687;DHT22;8962;52.538;13.266;2023-05-21T08:03:19;23.50;99.90
17687;DHT22;8962;52.538;13.266;2023-05-21T08:05:47;23.70;99.90
17687;DHT22;8962;52.538;13.266;2023-05-21T08:08:16;23.70;99.90
17687;DHT22;8962;52.538;13.266;2023-05-21T08:10:45;23.90;99.90
17687;DHT22;8962;52.538;13.266;2023-05-21T08:13:13;24.00;99.90
17687;DHT22;8962;52.538;13.266;2023-05-21T08:15:42;24.20;99.90
17687;DHT22;8962;52.538;13.266;2023-05-21T08:18:09;24.40;99.90
17687;DHT22;8962;52.538;13.266;2023-05-21T08:20:38;24.50;99.90
17687;DHT22;8962;52.538;13.266;2023-05-21T08:23:07;24.40;99.90
17687;DHT22;8962;52.538;13.266;2023-05-21T08:25:40;24.40;99.90
17687;DHT22;8962;52.538;13.266;2023-05-21T08:28:09;24.40;99.90
17687;DHT22;8962;52.538;13.266;2023-05-21T08:30:36;24.80;99.90
17687;DHT22;8962;52.538;13.266;2023-05-21T08:33:03;24.80;99.90
17687;DHT22;8962;52.538;13.266;2023-05-21T08:35:34;24.70;99.90
17687;DHT22;8962;52.538;13.266;2023-05-21T08:38:16;25.00;99.90
17687;DHT22;8962;52.538;13.266;2023-05-21T08:41:05;25.30;99.90
17687;DHT22;8962;52.538;13.266;2023-05-21T08:43:35;25.50;99.90
17687;DHT22;8962;52.538;13.266;2023-05-21T08:46:04;25.70;99.90
17687;DHT22;8962;52.538;13.266;2023-05-21T08:48:36;25.70;99.90
17687;DHT22;8962;52.538;13.266;2023-05-21T08:51:04;25.50;99.90
17687;DHT22;8962;52.538;13.266;2023-05-21T08:53:38;25.40;99.90
17687;DHT22;8962;52.538;13.266;2023-05-21T08:56:08;25.40;99.90
17687;DHT22;8962;52.538;13.266;2023-05-21T08:58:44;25.40;99.90
17687;DHT22;8962;52.538;13.266;2023-05-21T09:01:15;25.20;99.90
17687;DHT22;8962;52.538;13.266;2023-05-21T09:03:46;25.30;99.90
17687;DHT22;8962;52.538;13.266;2023-05-21T09:06:14;25.60;99.90
17687;DHT22;8962;52.538;13.266;2023-05-21T09:09:01;25.50;99.90
17687;DHT22;8962;52.538;13.266;2023-05-21T09:11:41;25.50;99.90
17687;DHT22;8962;52.538;13.266;2023-05-21T09:14:11;25.30;99.90
17687;DHT22;8962;52.538;13.266;2023-05-21T09:16:55;25.20;99.90
17687;DHT22;8962;52.538;13.266;2023-05-21T09:19:23;25.20;99.90
17687;DHT22;8962;52.538;13.266;2023-05-21T09:21:50;25.20;99.90
17687;DHT22;8962;52.538;13.266;2023-05-21T09:24:22;25.30;99.90
17687;DHT22;8962;52.538;13.266;2023-05-21T09:26:49;25.60;99.90
17687;DHT22;8962;52.538;13.266;2023-05-21T09:29:19;25.60;99.90
17687;DHT22;8962;52.538;13.266;2023-05-21T09:31:52;25.70;99.90
17687;DHT22;8962;52.538;13.266;2023-05-21T09:34:20;25.90;99.90
17687;DHT22;8962;52.538;13.266;2023-05-21T09:36:48;25.90;99.90
17687;DHT22;8962;52.538;13.266;2023-05-21T09:39:28;25.80;99.90
17687;DHT22;8962;52.538;13.266;2023-05-21T09:41:56;25.90;99.90
17687;DHT22;8962;52.538;13.266;2023-05-21T09:44:25;26.00;99.90
17687;DHT22;8962;52.538;13.266;2023-05-21T09:46:56;26.00;99.90
17687;DHT22;8962;52.538;13.266;2023-05-21T09:49:24;26.00;99.90
17687;DHT22;8962;52.538;13.266;2023-05-21T09:51:57;25.90;99.90
17687;DHT22;8962;52.538;13.266;2023-05-21T09:54:31;25.90;99.90
17687;DHT22;8962;52.538;13.266;2023-05-21T09:56:59;26.10;99.90
17687;DHT22;8962;52.538;13.266;2023-05-21T09:59:35;26.00;99.90
17687;DHT22;8962;52.538;13.266;2023-05-21T10:02:15;26.20;99.90
17687;DHT22;8962;52.538;13.266;2023-05-21T10:04:47;26.60;99.90
17687;DHT22;8962;52.538;13.266;2023-05-21T10:07:17;26.90;99.90
17687;DHT22;8962;52.538;13.266;2023-05-21T10:09:46;27.20;99.90
17687;DHT22;8962;52.538;13.266;2023-05-21T10:12:17;27.20;99.90
17687;DHT22;8962;52.538;13.266;2023-05-21T10:14:47;27.20;99.90
17687;DHT22;8962;52.538;13.266;2023-05-21T10:17:16;27.60;99.90
17687;DHT22;8962;52.538;13.266;2023-05-21T10:19:45;27.90;99.90
17687;DHT22;8962;52.538;13.266;2023-05-21T10:22:13;28.00;99.90
17687;DHT22;8962;52.538;13.266;2023-05-21T10:24:42;28.50;99.90
17687;DHT22;8962;52.538;13.266;2023-05-21T10:27:13;28.50;99.90
17687;DHT22;8962;52.538;13.266;2023-05-21T10:29:40;28.90;99.90
17687;DHT22;8962;52.538;13.266;2023-05-21T10:32:11;29.10;99.90
17687;DHT22;8962;52.538;13.266;2023-05-21T10:34:39;29.10;99.90
17687;DHT22;8962;52.538;13.266;2023-05-21T10:37:07;28.80;99.90
17687;DHT22;8962;52.538;13.266;2023-05-21T10:39:35;28.80;99.90
17687;DHT22;8962;52.538;13.266;2023-05-21T10:42:11;28.80;99.90
17687;DHT22;8962;52.538;13.266;2023-05-21T10:44:57;28.70;99.90
17687;DHT22;8962;52.538;13.266;2023-05-21T10:47:46;28.40;99.90
17687;DHT22;8962;52.538;13.266;2023-05-21T10:50:43;28.50;99.90
17687;DHT22;8962;52.538;13.266;2023-05-21T10:53:18;28.50;99.90
17687;DHT22;8962;52.538;13.266;2023-05-21T10:55:57;28.40;99.90
17687;DHT22;8962;52.538;13.266;2023-05-21T10:58:59;28.40;99.90
17687;DHT22;8962;52.538;13.266;2023-05-21T11:01:35;28.10;99.90
17687;DHT22;8962;52.538;13.266;2023-05-21T11:04:05;28.10;99.90
17687;DHT22;8962;52.538;13.266;2023-05-21T11:06:33;28.00;99.90
17687;DHT22;8962;52.538;13.266;2023-05-21T11:09:09;28.10;99.90
17687;DHT22;8962;52.538;13.266;2023-05-21T11:11:42;28.30;99.90
17687;DHT22;8962;52.538;13.266;2023-05-21T11:14:30;28.30;99.90
17687;DHT22;8962;52.538;13.266;2023-05-21T11:17:02;28.20;99.90
17687;DHT22;8962;52.538;13.266;2023-05-21T11:19:37;28.20;99.90
17687;DHT22;8962;52.538;13.266;2023-05-21T11:22:09;28.30;99.90
17687;DHT22;8962;52.538;13.266;2023-05-21T11:24:47;28.60;99.40
17687;DHT22;8962;52.538;13.266;2023-05-21T11:27:29;28.90;98.50
17687;DHT22;8962;52.538;13.266;2023-05-21T11:29:57;29.00;97.60
17687;DHT22;8962;52.538;13.266;2023-05-21T11:32:26;29.30;96.60
17687;DHT22;8962;52.538;13.266;2023-05-21T11:34:59;29.70;95.30
17687;DHT22;8962;52.538;13.266;2023-05-21T11:37:27;30.30;93.60
17687;DHT22;8962;52.538;13.266;2023-05-21T11:39:57;30.60;92.20
17687;DHT22;8962;52.538;13.266;2023-05-21T11:42:31;30.40;91.40
17687;DHT22;8962;52.538;13.266;2023-05-21T11:45:00;30.30;90.70
17687;DHT22;8962;52.538;13.266;2023-05-21T11:47:34;30.50;90.20
17687;DHT22;8962;52.538;13.266;2023-05-21T11:50:02;30.80;89.30
17687;DHT22;8962;52.538;13.266;2023-05-21T11:52:30;31.60;85.10
17687;DHT22;8962;52.538;13.266;2023-05-21T11:54:57;32.20;80.80
17687;DHT22;8962;52.538;13.266;2023-05-21T11:57:26;32.60;76.90
17687;DHT22;8962;52.538;13.266;2023-05-21T11:59:57;32.90;73.60
17687;DHT22;8962;52.538;13.266;2023-05-21T12:02:26;32.70;71.70
17687;DHT22;8962;52.538;13.266;2023-05-21T12:04:56;32.60;71.00
17687;DHT22;8962;52.538;13.266;2023-05-21T12:07:26;32.30;70.90
17687;DHT22;8962;52.538;13.266;2023-05-21T12:09:54;32.50;68.80
17687;DHT22;8962;52.538;13.266;2023-05-21T12:12:24;32.10;68.70
17687;DHT22;8962;52.538;13.266;2023-05-21T12:14:52;32.30;68.70
17687;DHT22;8962;52.538;13.266;2023-05-21T12:17:22;32.20;67.60
17687;DHT22;8962;52.538;13.266;2023-05-21T12:19:52;31.90;67.20
17687;DHT22;8962;52.538;13.266;2023-05-21T12:22:22;32.30;66.50
17687;DHT22;8962;52.538;13.266;2023-05-21T12:24:50;32.20;67.20
17687;DHT22;8962;52.538;13.266;2023-05-21T12:27:19;32.20;67.70
17687;DHT22;8962;52.538;13.266;2023-05-21T12:29:49;33.10;63.80
17687;DHT22;8962;52.538;13.266;2023-05-21T12:32:19;33.60;61.50
17687;DHT22;8962;52.538;13.266;2023-05-21T12:34:47;33.90;59.90
17687;DHT22;8962;52.538;13.266;2023-05-21T12:37:16;34.40;56.60
17687;DHT22;8962;52.538;13.266;2023-05-21T12:39:45;34.30;54.80
17687;DHT22;8962;52.538;13.266;2023-05-21T12:42:13;34.20;54.90
17687;DHT22;8962;52.538;13.266;2023-05-21T12:44:43;34.40;53.50
17687;DHT22;8962;52.538;13.266;2023-05-21T12:47:11;34.50;53.20
17687;DHT22;8962;52.538;13.266;2023-05-21T12:49:41;34.40;52.70
17687;DHT22;8962;52.538;13.266;2023-05-21T12:52:10;34.30;52.60
17687;DHT22;8962;52.538;13.266;2023-05-21T12:54:39;34.10;52.60
17687;DHT22;8962;52.538;13.266;2023-05-21T12:57:12;33.70;53.10
17687;DHT22;8962;52.538;13.266;2023-05-21T12:59:44;33.70;53.70
17687;DHT22;8962;52.538;13.266;2023-05-21T13:02:18;34.10;52.70
17687;DHT22;8962;52.538;13.266;2023-05-21T13:04:46;34.20;51.80
17687;DHT22;8962;52.538;13.266;2023-05-21T13:07:14;34.10;51.30
17687;DHT22;8962;52.538;13.266;2023-05-21T13:09:42;33.40;52.60
17687;DHT22;8962;52.538;13.266;2023-05-21T13:12:12;32.40;54.90
17687;DHT22;8962;52.538;13.266;2023-05-21T13:14:39;32.60;54.80
17687;DHT22;8962;52.538;13.266;2023-05-21T13:17:07;32.60;53.80
17687;DHT22;8962;52.538;13.266;2023-05-21T13:19:34;32.30;54.70
17687;DHT22;8962;52.538;13.266;2023-05-21T13:22:02;32.30;54.70
17687;DHT22;8962;52.538;13.266;2023-05-21T13:24:29;32.80;53.80
17687;DHT22;8962;52.538;13.266;2023-05-21T13:26:56;32.70;54.10
17687;DHT22;8962;52.538;13.266;2023-05-21T13:29:24;32.10;55.50
17687;DHT22;8962;52.538;13.266;2023-05-21T13:31:52;31.50;57.20
17687;DHT22;8962;52.538;13.266;2023-05-21T13:34:19;31.30;57.80
17687;DHT22;8962;52.538;13.266;2023-05-21T13:36:46;32.10;56.10
17687;DHT22;8962;52.538;13.266;2023-05-21T13:39:13;32.80;54.70
17687;DHT22;8962;52.538;13.266;2023-05-21T13:41:41;32.80;54.30
17687;DHT22;8962;52.538;13.266;2023-05-21T13:44:08;33.10;54.00
17687;DHT22;8962;52.538;13.266;2023-05-21T13:46:36;33.00;53.40
17687;DHT22;8962;52.538;13.266;2023-05-21T13:49:04;33.20;53.50
17687;DHT22;8962;52.538;13.266;2023-05-21T13:51:32;33.60;52.50
17687;DHT22;8962;52.538;13.266;2023-05-21T13:53:59;33.00;53.40
17687;DHT22;8962;52.538;13.266;2023-05-21T13:56:27;32.60;54.20
17687;DHT22;8962;52.538;13.266;2023-05-21T13:58:54;32.30;55.00
17687;DHT22;8962;52.538;13.266;2023-05-21T14:01:21;32.10;55.20
17687;DHT22;8962;52.538;13.266;2023-05-21T14:03:49;31.70;55.60
17687;DHT22;8962;52.538;13.266;2023-05-21T14:06:16;32.60;54.60
17687;DHT22;8962;52.538;13.266;2023-05-21T14:08:43;32.50;54.00
17687;DHT22;8962;52.538;13.266;2023-05-21T14:11:11;33.10;53.30
17687;DHT22;8962;52.538;13.266;2023-05-21T14:13:38;33.00;53.30
17687;DHT22;8962;52.538;13.266;2023-05-21T14:16:07;33.00;52.90
17687;DHT22;8962;52.538;13.266;2023-05-21T14:18:34;32.50;53.60
17687;DHT22;8962;52.538;13.266;2023-05-21T14:21:03;31.90;55.20
17687;DHT22;8962;52.538;13.266;2023-05-21T14:23:30;31.90;55.20
17687;DHT22;8962;52.538;13.266;2023-05-21T14:25:59;31.80;55.80
17687;DHT22;8962;52.538;13.266;2023-05-21T14:28:26;32.30;54.20
17687;DHT22;8962;52.538;13.266;2023-05-21T14:30:54;32.60;53.20
17687;DHT22;8962;52.538;13.266;2023-05-21T14:33:24;32.40;53.10
17687;DHT22;8962;52.538;13.266;2023-05-21T14:35:51;32.90;52.50
17687;DHT22;8962;52.538;13.266;2023-05-21T14:38:19;33.90;51.20
17687;DHT22;8962;52.538;13.266;2023-05-21T14:40:46;33.20;50.90
17687;DHT22;8962;52.538;13.266;2023-05-21T14:43:13;32.70;51.70
17687;DHT22;8962;52.538;13.266;2023-05-21T14:45:41;32.50;52.10
17687;DHT22;8962;52.538;13.266;2023-05-21T14:48:09;32.00;53.10
17687;DHT22;8962;52.538;13.266;2023-05-21T14:50:37;31.90;53.40
17687;DHT22;8962;52.538;13.266;2023-05-21T14:53:04;31.70;53.90
17687;DHT22;8962;52.538;13.266;2023-05-21T14:55:33;31.80;54.40
17687;DHT22;8962;52.538;13.266;2023-05-21T14:58:01;31.80;53.70
17687;DHT22;8962;52.538;13.266;2023-05-21T15:00:29;31.60;54.00
17687;DHT22;8962;52.538;13.266;2023-05-21T15:02:56;31.50;53.70
17687;DHT22;8962;52.538;13.266;2023-05-21T15:05:23;31.40;53.90
17687;DHT22;8962;52.538;13.266;2023-05-21T15:07:50;31.30;54.80
17687;DHT22;8962;52.538;13.266;2023-05-21T15:10:20;31.70;53.90
17687;DHT22;8962;52.538;13.266;2023-05-21T15:12:49;31.60;53.70
17687;DHT22;8962;52.538;13.266;2023-05-21T15:15:16;31.80;53.20
17687;DHT22;8962;52.538;13.266;2023-05-21T15:17:46;31.60;53.60
17687;DHT22;8962;52.538;13.266;2023-05-21T15:20:13;31.20;54.10
17687;DHT22;8962;52.538;13.266;2023-05-21T15:22:40;30.70;55.10
17687;DHT22;8962;52.538;13.266;2023-05-21T15:25:09;30.20;56.30
17687;DHT22;8962;52.538;13.266;2023-05-21T15:27:36;29.90;57.00
17687;DHT22;8962;52.538;13.266;2023-05-21T15:30:06;29.30;58.20
17687;DHT22;8962;52.538;13.266;2023-05-21T15:32:34;29.20;58.70
17687;DHT22;8962;52.538;13.266;2023-05-21T15:35:01;29.30;59.00
17687;DHT22;8962;52.538;13.266;2023-05-21T15:37:28;29.10;59.40
17687;DHT22;8962;52.538;13.266;2023-05-21T15:39:57;29.00;59.50
17687;DHT22;8962;52.538;13.266;2023-05-21T15:42:24;29.10;59.70
17687;DHT22;8962;52.538;13.266;2023-05-21T15:44:55;28.90;60.00